Pagrindinis puslapis
METAR-TAF:

METAR-TAF

Oro uostai :

Manokotak, Aliaska, Jungtinės Amerikos Valstijos

platuma: 58-59-19N, ilguma: 159-02-56W, Aukštis: 16 m

Dabartinis oras

Ataskaita buvo paskelbta 40 minutes, ne 16:56 UTC
Vėjas 4 kt iš Šiaurės/Šiaurės Rytų
Temperatūra -24°C
Drėgmė 69%
Slėgis 981 hPa
Matomumas: 16.1 km
Giedras dangus

METAR: PAMB 291656Z AUTO 03004KT 10SM CLR M24/M28 A2897 RMK AO2 SLP815 T12441283 FZRANO $

Laikas: 08:36 (17:36 UTC)


TAF: trūkstamas

Orai ataskaitas ir orų prognozės (METAR, TAF).

turimą stotys yra geltonos ir raudonos taškus žemėlapyje.

Perkelti pele per norėdami pamatyti stoties vardą.

Tada spustelėkite, norėdami matyti oro stebėjimo ir prognozės.

Norėdami pakeisti žemėlapį: spustelėkite ant žalios mygtukų su juodo kryžiaus žemyn,; žalią mygtuką su brūkšneliu, jei norite nutolinti; arba žalių rodyklių gretimoms žemėlapius.


METAR-TAF: